sensor_id;sensor_type;location;lat;lon;timestamp;temperature;humidity
16625;DHT22;8426;48.496;9.098;2023-09-18T07:45:08;19.60;99.90
16625;DHT22;8426;48.496;9.098;2023-09-18T07:50:13;20.00;99.90
16625;DHT22;8426;48.496;9.098;2023-09-18T07:55:20;20.30;99.90
16625;DHT22;8426;48.496;9.098;2023-09-18T08:00:25;20.70;99.90
16625;DHT22;8426;48.496;9.098;2023-09-18T08:05:32;21.00;99.90
16625;DHT22;8426;48.496;9.098;2023-09-18T08:10:36;20.90;99.90
16625;DHT22;8426;48.496;9.098;2023-09-18T09:54:49;19.00;99.90
16625;DHT22;8426;48.496;9.098;2023-09-18T10:00:03;19.20;99.90
16625;DHT22;8426;48.496;9.098;2023-09-18T10:05:18;19.50;99.90
16625;DHT22;8426;48.496;9.098;2023-09-18T12:14:07;19.30;99.90
16625;DHT22;8426;48.496;9.098;2023-09-18T12:19:16;19.40;99.90
16625;DHT22;8426;48.496;9.098;2023-09-18T12:24:21;19.70;99.90
16625;DHT22;8426;48.496;9.098;2023-09-18T12:29:32;20.30;99.90
16625;DHT22;8426;48.496;9.098;2023-09-18T12:34:36;21.20;99.90
16625;DHT22;8426;48.496;9.098;2023-09-18T12:39:43;21.90;99.90
16625;DHT22;8426;48.496;9.098;2023-09-18T12:44:48;21.90;99.90
16625;DHT22;8426;48.496;9.098;2023-09-18T12:50:02;21.80;99.90
16625;DHT22;8426;48.496;9.098;2023-09-18T12:55:23;22.20;99.90
16625;DHT22;8426;48.496;9.098;2023-09-18T13:00:29;22.40;99.90
16625;DHT22;8426;48.496;9.098;2023-09-18T13:05:39;22.10;99.90
16625;DHT22;8426;48.496;9.098;2023-09-18T13:10:46;22.10;99.90
16625;DHT22;8426;48.496;9.098;2023-09-18T13:16:04;21.90;99.90
16625;DHT22;8426;48.496;9.098;2023-09-18T13:21:10;22.40;99.90
16625;DHT22;8426;48.496;9.098;2023-09-18T13:26:14;23.20;99.90
16625;DHT22;8426;48.496;9.098;2023-09-18T13:31:20;23.20;99.90
16625;DHT22;8426;48.496;9.098;2023-09-18T13:36:41;22.70;99.90
16625;DHT22;8426;48.496;9.098;2023-09-18T13:41:45;22.20;99.90
16625;DHT22;8426;48.496;9.098;2023-09-18T13:46:52;22.10;99.90
16625;DHT22;8426;48.496;9.098;2023-09-18T13:51:57;22.30;99.90
16625;DHT22;8426;48.496;9.098;2023-09-18T13:57:00;22.40;99.90
16625;DHT22;8426;48.496;9.098;2023-09-18T14:02:10;22.10;99.90
16625;DHT22;8426;48.496;9.098;2023-09-18T14:07:14;22.00;99.90
16625;DHT22;8426;48.496;9.098;2023-09-18T14:12:18;21.80;99.90
16625;DHT22;8426;48.496;9.098;2023-09-18T14:17:32;21.70;99.90
16625;DHT22;8426;48.496;9.098;2023-09-18T14:22:38;21.80;99.90
16625;DHT22;8426;48.496;9.098;2023-09-18T14:27:42;21.80;99.90
16625;DHT22;8426;48.496;9.098;2023-09-18T14:32:47;21.70;99.90
16625;DHT22;8426;48.496;9.098;2023-09-18T14:38:03;21.60;99.90
16625;DHT22;8426;48.496;9.098;2023-09-18T14:43:08;21.50;99.90
16625;DHT22;8426;48.496;9.098;2023-09-18T14:48:14;21.40;99.90
16625;DHT22;8426;48.496;9.098;2023-09-18T14:53:35;21.60;99.90
16625;DHT22;8426;48.496;9.098;2023-09-18T14:58:39;21.70;99.90
16625;DHT22;8426;48.496;9.098;2023-09-18T15:03:48;21.50;99.90
16625;DHT22;8426;48.496;9.098;2023-09-18T15:08:55;21.30;99.90
16625;DHT22;8426;48.496;9.098;2023-09-18T15:14:08;21.40;99.90
16625;DHT22;8426;48.496;9.098;2023-09-18T15:19:13;21.40;99.90
16625;DHT22;8426;48.496;9.098;2023-09-18T15:24:23;21.30;99.90
16625;DHT22;8426;48.496;9.098;2023-09-18T15:29:36;21.40;99.90
16625;DHT22;8426;48.496;9.098;2023-09-18T15:34:41;21.30;99.90
16625;DHT22;8426;48.496;9.098;2023-09-18T15:39:45;21.20;99.90
16625;DHT22;8426;48.496;9.098;2023-09-18T15:44:49;20.80;99.90
16625;DHT22;8426;48.496;9.098;2023-09-18T15:49:54;20.40;99.90
16625;DHT22;8426;48.496;9.098;2023-09-18T15:54:59;20.20;99.90
16625;DHT22;8426;48.496;9.098;2023-09-18T16:00:06;20.20;99.90
16625;DHT22;8426;48.496;9.098;2023-09-18T16:05:13;20.20;99.90
16625;DHT22;8426;48.496;9.098;2023-09-18T16:10:18;20.20;99.90
16625;DHT22;8426;48.496;9.098;2023-09-18T16:15:22;20.10;99.90
16625;DHT22;8426;48.496;9.098;2023-09-18T16:20:28;20.20;99.90
16625;DHT22;8426;48.496;9.098;2023-09-18T16:25:32;20.20;99.90
16625;DHT22;8426;48.496;9.098;2023-09-18T16:30:36;19.90;99.90
16625;DHT22;8426;48.496;9.098;2023-09-18T16:35:42;19.90;99.90
16625;DHT22;8426;48.496;9.098;2023-09-18T16:40:46;20.00;99.90
16625;DHT22;8426;48.496;9.098;2023-09-18T16:45:51;19.90;99.90
16625;DHT22;8426;48.496;9.098;2023-09-18T16:50:57;19.80;99.90
16625;DHT22;8426;48.496;9.098;2023-09-18T16:56:02;19.70;99.90
16625;DHT22;8426;48.496;9.098;2023-09-18T17:01:05;19.40;99.90
16625;DHT22;8426;48.496;9.098;2023-09-18T17:06:10;19.20;99.90
16625;DHT22;8426;48.496;9.098;2023-09-18T17:11:14;19.00;99.90
16625;DHT22;8426;48.496;9.098;2023-09-18T17:16:25;18.80;99.90
16625;DHT22;8426;48.496;9.098;2023-09-18T17:21:32;18.60;99.90
16625;DHT22;8426;48.496;9.098;2023-09-18T17:26:36;18.40;99.90
16625;DHT22;8426;48.496;9.098;2023-09-18T17:31:40;18.20;99.90
16625;DHT22;8426;48.496;9.098;2023-09-18T17:36:48;18.00;99.90
16625;DHT22;8426;48.496;9.098;2023-09-18T17:41:52;17.90;99.90
16625;DHT22;8426;48.496;9.098;2023-09-18T17:47:02;17.70;99.90
16625;DHT22;8426;48.496;9.098;2023-09-18T17:52:16;17.70;99.90
16625;DHT22;8426;48.496;9.098;2023-09-18T17:57:19;17.60;99.90
16625;DHT22;8426;48.496;9.098;2023-09-18T18:02:31;17.60;99.90
16625;DHT22;8426;48.496;9.098;2023-09-18T18:07:36;17.50;99.90
16625;DHT22;8426;48.496;9.098;2023-09-18T18:12:42;17.30;99.90
16625;DHT22;8426;48.496;9.098;2023-09-18T18:17:46;17.30;99.90
16625;DHT22;8426;48.496;9.098;2023-09-18T18:22:53;17.10;99.90
16625;DHT22;8426;48.496;9.098;2023-09-18T18:28:03;17.10;99.90
